sensor_id;sensor_type;location;lat;lon;timestamp;pressure;altitude;pressure_sealevel;temperature;humidity
76044;BME280;64740;34.694;33.088;2023-07-28T00:00:56;1028;;;32.9;24
76044;BME280;64740;34.694;33.088;2023-07-28T00:05:17;1028.1;;;33.2;23.5
76044;BME280;64740;34.694;33.088;2023-07-28T00:10:15;1028.1;;;33.4;23.2
76044;BME280;64740;34.694;33.088;2023-07-28T00:15:43;1028.1;;;33.5;23
76044;BME280;64740;34.694;33.088;2023-07-28T00:20:55;1028.1;;;33.5;23.2
76044;BME280;64740;34.694;33.088;2023-07-28T00:25:55;1028.2;;;33.6;22.9
76044;BME280;64740;34.694;33.088;2023-07-28T00:30:55;1028.2;;;33.5;22.9
76044;BME280;64740;34.694;33.088;2023-07-28T00:35:55;1028.2;;;33.5;23
76044;BME280;64740;34.694;33.088;2023-07-28T00:40:15;1028.3;;;33.6;23.1
76044;BME280;64740;34.694;33.088;2023-07-28T00:45:19;1028.3;;;33.7;23.1
76044;BME280;64740;34.694;33.088;2023-07-28T00:50:45;1028.2;;;33.7;22.9
76044;BME280;64740;34.694;33.088;2023-07-28T00:55:55;1028.2;;;33.6;22.9
76044;BME280;64740;34.694;33.088;2023-07-28T01:00:21;1028.3;;;33.5;22.7
76044;BME280;64740;34.694;33.088;2023-07-28T01:05:44;1028.2;;;33.4;22.5
76044;BME280;64740;34.694;33.088;2023-07-28T01:10:28;1028.2;;;33.4;22.5
76044;BME280;64740;34.694;33.088;2023-07-28T01:15:13;1028.2;;;33.3;22.4
76044;BME280;64740;34.694;33.088;2023-07-28T01:20:53;1028.2;;;33.2;22.5
76044;BME280;64740;34.694;33.088;2023-07-28T01:25:32;1028.1;;;33.2;22.2
76044;BME280;64740;34.694;33.088;2023-07-28T01:30:39;1028.1;;;33.2;22.1
76044;BME280;64740;34.694;33.088;2023-07-28T01:35:43;1028.1;;;33.3;22.2
76044;BME280;64740;34.694;33.088;2023-07-28T01:40:55;1028;;;33.3;22.2
76044;BME280;64740;34.694;33.088;2023-07-28T01:45:15;1028;;;33.2;22.2
76044;BME280;64740;34.694;33.088;2023-07-28T01:50:31;1028.1;;;33.2;22.3
76044;BME280;64740;34.694;33.088;2023-07-28T01:55:25;1028.1;;;33.2;22.1
76044;BME280;64740;34.694;33.088;2023-07-28T02:00:33;1028.1;;;33.2;21.9
76044;BME280;64740;34.694;33.088;2023-07-28T02:05:19;1028.1;;;33.3;21.7
76044;BME280;64740;34.694;33.088;2023-07-28T02:10:19;1028.1;;;33.2;21.6
76044;BME280;64740;34.694;33.088;2023-07-28T02:15:41;1028.1;;;32.8;22.1
76044;BME280;64740;34.694;33.088;2023-07-28T02:20:15;1028.2;;;32.5;22.6
76044;BME280;64740;34.694;33.088;2023-07-28T02:25:17;1028.2;;;32.3;22.8
76044;BME280;64740;34.694;33.088;2023-07-28T02:30:53;1028.3;;;32.2;23.1
76044;BME280;64740;34.694;33.088;2023-07-28T02:35:41;1028.3;;;32.1;23.2
76044;BME280;64740;34.694;33.088;2023-07-28T02:40:13;1028.3;;;32;23.3
76044;BME280;64740;34.694;33.088;2023-07-28T02:45:27;1028.3;;;31.9;23.5
76044;BME280;64740;34.694;33.088;2023-07-28T02:50:37;1028.4;;;31.9;23.7
76044;BME280;64740;34.694;33.088;2023-07-28T02:55:43;1028.4;;;31.9;23.8
76044;BME280;64740;34.694;33.088;2023-07-28T03:00:31;1028.5;;;31.8;24
76044;BME280;64740;34.694;33.088;2023-07-28T03:05:51;1028.5;;;31.8;24
76044;BME280;64740;34.694;33.088;2023-07-28T03:10:37;1028.5;;;31.8;24
76044;BME280;64740;34.694;33.088;2023-07-28T03:15:21;1028.5;;;31.8;24.2
76044;BME280;64740;34.694;33.088;2023-07-28T03:20:13;1028.5;;;31.7;24.4
76044;BME280;64740;34.694;33.088;2023-07-28T03:25:13;1028.5;;;31.7;24.7
76044;BME280;64740;34.694;33.088;2023-07-28T03:30:13;1028.6;;;31.7;24.8
76044;BME280;64740;34.694;33.088;2023-07-28T03:35:31;1028.5;;;31.7;24.8
76044;BME280;64740;34.694;33.088;2023-07-28T03:40:43;1028.5;;;31.7;25
76044;BME280;64740;34.694;33.088;2023-07-28T03:45:37;1028.6;;;31.7;25.2
76044;BME280;64740;34.694;33.088;2023-07-28T03:50:31;1028.6;;;31.7;25.3
76044;BME280;64740;34.694;33.088;2023-07-28T03:55:23;1028.7;;;31.7;25.2
76044;BME280;64740;34.694;33.088;2023-07-28T04:00:13;1028.8;;;32;25
76044;BME280;64740;34.694;33.088;2023-07-28T04:05:13;1028.8;;;32.3;24.6
76044;BME280;64740;34.694;33.088;2023-07-28T04:10:53;1028.8;;;32.6;24.5
76044;BME280;64740;34.694;33.088;2023-07-28T04:15:17;1028.9;;;32.8;24.4
76044;BME280;64740;34.694;33.088;2023-07-28T04:20:37;1028.9;;;33.1;24.1
76044;BME280;64740;34.694;33.088;2023-07-28T04:25:33;1028.9;;;33.2;24.1
76044;BME280;64740;34.694;33.088;2023-07-28T04:30:43;1028.9;;;33.4;24.1
76044;BME280;64740;34.694;33.088;2023-07-28T04:35:13;1029;;;33.6;24.1
76044;BME280;64740;34.694;33.088;2023-07-28T04:40:43;1029.1;;;33.7;24.1
76044;BME280;64740;34.694;33.088;2023-07-28T04:45:53;1029.1;;;33.8;24.4
76044;BME280;64740;34.694;33.088;2023-07-28T04:50:41;1029.2;;;34;25.1
76044;BME280;64740;34.694;33.088;2023-07-28T04:55:25;1029.3;;;34.1;25.6
76044;BME280;64740;34.694;33.088;2023-07-28T05:00:53;1029.3;;;34.2;25.8
76044;BME280;64740;34.694;33.088;2023-07-28T05:05:17;1029.4;;;34.2;26.2
76044;BME280;64740;34.694;33.088;2023-07-28T05:10:13;1029.5;;;34.3;26.3
76044;BME280;64740;34.694;33.088;2023-07-28T05:15:31;1029.5;;;34.3;26.5
76044;BME280;64740;34.694;33.088;2023-07-28T05:20:25;1029.6;;;34.3;27.4
76044;BME280;64740;34.694;33.088;2023-07-28T05:25:15;1029.7;;;34.4;28.7
76044;BME280;64740;34.694;33.088;2023-07-28T05:30:51;1029.7;;;34.4;30.7
76044;BME280;64740;34.694;33.088;2023-07-28T05:35:14;1029.8;;;34.3;33.4
76044;BME280;64740;34.694;33.088;2023-07-28T05:40:37;1029.8;;;34.3;34.4
76044;BME280;64740;34.694;33.088;2023-07-28T05:45:53;1029.8;;;34.4;33.8
76044;BME280;64740;34.694;33.088;2023-07-28T05:50:31;1029.8;;;34.4;32.4
76044;BME280;64740;34.694;33.088;2023-07-28T05:55:21;1029.8;;;34.5;32.5
76044;BME280;64740;34.694;33.088;2023-07-28T06:00:43;1029.8;;;34.6;32.3
76044;BME280;64740;34.694;33.088;2023-07-28T06:05:55;1029.8;;;34.7;32.3
76044;BME280;64740;34.694;33.088;2023-07-28T06:10:15;1029.8;;;34.7;32.4
76044;BME280;64740;34.694;33.088;2023-07-28T06:15:15;1029.9;;;34.7;32.4
76044;BME280;64740;34.694;33.088;2023-07-28T06:20:43;1029.9;;;34.5;33.3
76044;BME280;64740;34.694;33.088;2023-07-28T06:25:33;1029.9;;;34.4;33.6
76044;BME280;64740;34.694;33.088;2023-07-28T06:30:27;1029.9;;;34.4;33.2
76044;BME280;64740;34.694;33.088;2023-07-28T06:35:29;1030;;;34.3;32.4
76044;BME280;64740;34.694;33.088;2023-07-28T06:40:55;1030;;;34.3;32.6
76044;BME280;64740;34.694;33.088;2023-07-28T06:45:41;1030.1;;;34.3;32.7
76044;BME280;64740;34.694;33.088;2023-07-28T06:50:15;1030.1;;;34.3;33.7
76044;BME280;64740;34.694;33.088;2023-07-28T06:55:55;1030.1;;;34.3;34.7
76044;BME280;64740;34.694;33.088;2023-07-28T07:00:43;1030.1;;;34.3;34.7
76044;BME280;64740;34.694;33.088;2023-07-28T07:05:27;1030.2;;;34.3;34.2
76044;BME280;64740;34.694;33.088;2023-07-28T07:10:29;1030.3;;;34.4;33.9
76044;BME280;64740;34.694;33.088;2023-07-28T07:15:39;1030.3;;;34.5;34.6
76044;BME280;64740;34.694;33.088;2023-07-28T07:20:45;1030.3;;;34.5;35
76044;BME280;64740;34.694;33.088;2023-07-28T07:25:15;1030.3;;;34.5;35.8
76044;BME280;64740;34.694;33.088;2023-07-28T07:30:55;1030.3;;;34.5;36.4
76044;BME280;64740;34.694;33.088;2023-07-28T07:35:17;1030.3;;;34.6;37.4
76044;BME280;64740;34.694;33.088;2023-07-28T07:40:27;1030.3;;;34.7;38
76044;BME280;64740;34.694;33.088;2023-07-28T07:45:29;1030.3;;;34.7;38.7
76044;BME280;64740;34.694;33.088;2023-07-28T07:50:29;1030.3;;;34.8;38.5
76044;BME280;64740;34.694;33.088;2023-07-28T07:55:15;1030.4;;;34.8;38.6
76044;BME280;64740;34.694;33.088;2023-07-28T08:00:45;1030.4;;;34.9;39.2
76044;BME280;64740;34.694;33.088;2023-07-28T08:05:41;1030.3;;;34.9;39
76044;BME280;64740;34.694;33.088;2023-07-28T08:10:39;1030.4;;;34.8;40.9
76044;BME280;64740;34.694;33.088;2023-07-28T08:15:55;1030.4;;;34.8;41.3
76044;BME280;64740;34.694;33.088;2023-07-28T08:20:45;1030.4;;;34.8;41.9
76044;BME280;64740;34.694;33.088;2023-07-28T08:25:15;1030.3;;;34.9;42.3
76044;BME280;64740;34.694;33.088;2023-07-28T08:30:52;1030.3;;;35;42
76044;BME280;64740;34.694;33.088;2023-07-28T08:35:55;1030.3;;;35.1;42.1
76044;BME280;64740;34.694;33.088;2023-07-28T08:40:56;1030.3;;;35.2;42.4
76044;BME280;64740;34.694;33.088;2023-07-28T08:45:55;1030.3;;;35.2;44
76044;BME280;64740;34.694;33.088;2023-07-28T08:50:55;1030.3;;;35.3;45.7
76044;BME280;64740;34.694;33.088;2023-07-28T08:55:23;1030.2;;;35.3;45.8
76044;BME280;64740;34.694;33.088;2023-07-28T09:00:15;1030.2;;;35.4;45.8
76044;BME280;64740;34.694;33.088;2023-07-28T09:05:47;1030.1;;;35.3;45.8
76044;BME280;64740;34.694;33.088;2023-07-28T09:10:44;1030.1;;;35.3;46
76044;BME280;64740;34.694;33.088;2023-07-28T09:15:41;1030.1;;;35.3;46.6
76044;BME280;64740;34.694;33.088;2023-07-28T09:20:47;1030;;;35.3;47
76044;BME280;64740;34.694;33.088;2023-07-28T09:25:58;1030;;;35.2;46.8
76044;BME280;64740;34.694;33.088;2023-07-28T09:30:15;1030;;;35.2;46.9
76044;BME280;64740;34.694;33.088;2023-07-28T09:35:33;1029.9;;;35.2;46.5
76044;BME280;64740;34.694;33.088;2023-07-28T09:40:31;1029.9;;;35.6;45.9
76044;BME280;64740;34.694;33.088;2023-07-28T09:45:55;1029.8;;;36.2;44.3
76044;BME280;64740;34.694;33.088;2023-07-28T09:50:41;1029.8;;;36.7;42.9
76044;BME280;64740;34.694;33.088;2023-07-28T09:55:45;1029.8;;;37.1;42
76044;BME280;64740;34.694;33.088;2023-07-28T10:00:29;1029.8;;;37.3;42.7
76044;BME280;64740;34.694;33.088;2023-07-28T10:05:17;1029.8;;;37.5;42.5
76044;BME280;64740;34.694;33.088;2023-07-28T10:10:57;1029.8;;;37.4;42.8
76044;BME280;64740;34.694;33.088;2023-07-28T10:15:33;1029.7;;;37.1;43.1
76044;BME280;64740;34.694;33.088;2023-07-28T10:20:42;1029.7;;;36.9;43.6
76044;BME280;64740;34.694;33.088;2023-07-28T10:25:44;1029.8;;;36.8;44
76044;BME280;64740;34.694;33.088;2023-07-28T10:30:55;1029.7;;;36.7;44.4
76044;BME280;64740;34.694;33.088;2023-07-28T10:35:22;1029.7;;;36.5;44.8
76044;BME280;64740;34.694;33.088;2023-07-28T10:40:23;1029.7;;;36.6;45
76044;BME280;64740;34.694;33.088;2023-07-28T10:45:43;1029.6;;;36.7;44.9
76044;BME280;64740;34.694;33.088;2023-07-28T10:50:33;1029.6;;;36.9;44.5
76044;BME280;64740;34.694;33.088;2023-07-28T10:55:27;1029.6;;;37.1;44.2
76044;BME280;64740;34.694;33.088;2023-07-28T11:00:27;1029.5;;;37.4;44.1
76044;BME280;64740;34.694;33.088;2023-07-28T11:05:55;1029.5;;;37.6;43.8
76044;BME280;64740;34.694;33.088;2023-07-28T11:10:29;1029.5;;;37.7;43.1
76044;BME280;64740;34.694;33.088;2023-07-28T11:15:15;1029.4;;;37.7;43.1
76044;BME280;64740;34.694;33.088;2023-07-28T11:20:57;1029.4;;;38;43.5
76044;BME280;64740;34.694;33.088;2023-07-28T11:25:43;1029.3;;;38.3;43.2
76044;BME280;64740;34.694;33.088;2023-07-28T11:30:23;1029.3;;;38.7;43.3
76044;BME280;64740;34.694;33.088;2023-07-28T11:35:31;1029.3;;;39;43.1
76044;BME280;64740;34.694;33.088;2023-07-28T11:40:41;1029.2;;;39.2;42.8
76044;BME280;64740;34.694;33.088;2023-07-28T11:45:29;1029.2;;;39.4;42.6
76044;BME280;64740;34.694;33.088;2023-07-28T11:50:21;1029.1;;;39.8;41.9
76044;BME280;64740;34.694;33.088;2023-07-28T11:55:47;1029;;;40.3;40.9
76044;BME280;64740;34.694;33.088;2023-07-28T12:00:41;1029;;;40.8;39.9
76044;BME280;64740;34.694;33.088;2023-07-28T12:05:58;1028.9;;;41.2;39.2
76044;BME280;64740;34.694;33.088;2023-07-28T12:10:19;1028.9;;;41.3;38.3
76044;BME280;64740;34.694;33.088;2023-07-28T12:15:19;1028.9;;;41.4;38.4
76044;BME280;64740;34.694;33.088;2023-07-28T12:20:19;1028.8;;;41.7;37.9
76044;BME280;64740;34.694;33.088;2023-07-28T12:25:55;1028.8;;;42;37.3
76044;BME280;64740;34.694;33.088;2023-07-28T12:30:15;1028.7;;;42.1;37.2
76044;BME280;64740;34.694;33.088;2023-07-28T12:35:39;1028.7;;;42.2;37.2
76044;BME280;64740;34.694;33.088;2023-07-28T12:40:55;1028.7;;;42.3;36.9
76044;BME280;64740;34.694;33.088;2023-07-28T12:45:45;1028.6;;;42;37.4
76044;BME280;64740;34.694;33.088;2023-07-28T12:50:19;1028.6;;;41.4;38.2
76044;BME280;64740;34.694;33.088;2023-07-28T12:55:45;1028.6;;;41;38.8
76044;BME280;64740;34.694;33.088;2023-07-28T13:00:55;1028.5;;;40.7;38.9
76044;BME280;64740;34.694;33.088;2023-07-28T13:05:27;1028.5;;;40.6;38.9
76044;BME280;64740;34.694;33.088;2023-07-28T13:10:55;1028.5;;;40.6;38.7
76044;BME280;64740;34.694;33.088;2023-07-28T13:15:55;1028.4;;;40.7;38.2
76044;BME280;64740;34.694;33.088;2023-07-28T13:20:43;1028.4;;;40.6;38
76044;BME280;64740;34.694;33.088;2023-07-28T13:25:29;1028.4;;;40.6;38.1
76044;BME280;64740;34.694;33.088;2023-07-28T13:30:17;1028.4;;;40.7;37.8
76044;BME280;64740;34.694;33.088;2023-07-28T13:35:55;1028.3;;;40.7;37.9
76044;BME280;64740;34.694;33.088;2023-07-28T13:40:43;1028.2;;;40.7;38
76044;BME280;64740;34.694;33.088;2023-07-28T13:45:17;1028.2;;;40.7;37.9
76044;BME280;64740;34.694;33.088;2023-07-28T13:50:55;1028.1;;;40.8;37.7
76044;BME280;64740;34.694;33.088;2023-07-28T13:55:15;1028.1;;;41;37.5
76044;BME280;64740;34.694;33.088;2023-07-28T14:00:15;1028;;;41;36.9
76044;BME280;64740;34.694;33.088;2023-07-28T14:05:29;1028;;;41;36.3
76044;BME280;64740;34.694;33.088;2023-07-28T14:10:55;1028;;;41;35.7
76044;BME280;64740;34.694;33.088;2023-07-28T14:15:43;1027.9;;;41.1;35.5
76044;BME280;64740;34.694;33.088;2023-07-28T14:20:17;1027.9;;;41.1;34.9
76044;BME280;64740;34.694;33.088;2023-07-28T14:25:19;1027.8;;;41.1;34.7
76044;BME280;64740;34.694;33.088;2023-07-28T14:30:15;1027.8;;;41.1;34.4
76044;BME280;64740;34.694;33.088;2023-07-28T14:35:55;1027.7;;;41.1;34.1
76044;BME280;64740;34.694;33.088;2023-07-28T14:40:33;1027.7;;;41.1;34.3
76044;BME280;64740;34.694;33.088;2023-07-28T14:45:23;1027.6;;;40.9;34.3
76044;BME280;64740;34.694;33.088;2023-07-28T14:50:43;1027.6;;;41;33.9
76044;BME280;64740;34.694;33.088;2023-07-28T14:55:55;1027.5;;;41;33.4
76044;BME280;64740;34.694;33.088;2023-07-28T15:00:19;1027.5;;;41;33.3
76044;BME280;64740;34.694;33.088;2023-07-28T15:05:15;1027.5;;;41;33.1
76044;BME280;64740;34.694;33.088;2023-07-28T15:10:43;1027.5;;;41;33.2
76044;BME280;64740;34.694;33.088;2023-07-28T15:15:29;1027.5;;;40.9;33.3
76044;BME280;64740;34.694;33.088;2023-07-28T15:20:27;1027.5;;;40.7;33.8
76044;BME280;64740;34.694;33.088;2023-07-28T15:25:15;1027.6;;;40.5;33.6
76044;BME280;64740;34.694;33.088;2023-07-28T15:30:55;1027.6;;;40.3;33.3
76044;BME280;64740;34.694;33.088;2023-07-28T15:35:19;1027.6;;;40.2;32.8
76044;BME280;64740;34.694;33.088;2023-07-28T15:40:19;1027.6;;;40.1;32.6
76044;BME280;64740;34.694;33.088;2023-07-28T15:45:55;1027.6;;;40;32.2
76044;BME280;64740;34.694;33.088;2023-07-28T15:50:39;1027.7;;;39.9;32
76044;BME280;64740;34.694;33.088;2023-07-28T15:55:27;1027.7;;;39.8;31.8
76044;BME280;64740;34.694;33.088;2023-07-28T16:00:25;1027.7;;;39.7;31.7
76044;BME280;64740;34.694;33.088;2023-07-28T16:05:15;1027.8;;;39.6;31.4
76044;BME280;64740;34.694;33.088;2023-07-28T16:10:43;1027.8;;;39.5;31.4
76044;BME280;64740;34.694;33.088;2023-07-28T16:15:15;1027.8;;;39.2;31.7
76044;BME280;64740;34.694;33.088;2023-07-28T16:20:45;1027.9;;;38.9;32.3
76044;BME280;64740;34.694;33.088;2023-07-28T16:25:35;1028;;;38.7;32.8
76044;BME280;64740;34.694;33.088;2023-07-28T16:30:37;1028;;;38.5;33.2
76044;BME280;64740;34.694;33.088;2023-07-28T16:35:29;1028.1;;;38.3;33.9
76044;BME280;64740;34.694;33.088;2023-07-28T16:40:37;1028.1;;;38;34.7
76044;BME280;64740;34.694;33.088;2023-07-28T16:45:25;1028.1;;;37.9;35.5
76044;BME280;64740;34.694;33.088;2023-07-28T16:50:53;1028.1;;;37.6;36.3
76044;BME280;64740;34.694;33.088;2023-07-28T16:55:27;1028.1;;;37.1;37.3
76044;BME280;64740;34.694;33.088;2023-07-28T17:00:41;1028.2;;;36.7;38.3
76044;BME280;64740;34.694;33.088;2023-07-28T17:05:57;1028.3;;;36.4;39
76044;BME280;64740;34.694;33.088;2023-07-28T17:10:47;1028.3;;;36.1;39.9
76044;BME280;64740;34.694;33.088;2023-07-28T17:15:37;1028.3;;;36.1;40.3
76044;BME280;64740;34.694;33.088;2023-07-28T17:20:17;1028.4;;;36.2;40.9
76044;BME280;64740;34.694;33.088;2023-07-28T17:25:57;1028.4;;;36.2;41.1
76044;BME280;64740;34.694;33.088;2023-07-28T17:30:57;1028.4;;;36.3;41.4
76044;BME280;64740;34.694;33.088;2023-07-28T17:35:41;1028.4;;;36.3;41.7
76044;BME280;64740;34.694;33.088;2023-07-28T17:40:57;1028.3;;;36.4;41.9
76044;BME280;64740;34.694;33.088;2023-07-28T17:45:19;1028.2;;;36.6;41.8
76044;BME280;64740;34.694;33.088;2023-07-28T17:50:15;1028.2;;;37;41.2
76044;BME280;64740;34.694;33.088;2023-07-28T17:55:47;1028.3;;;37.4;40.6
76044;BME280;64740;34.694;33.088;2023-07-28T18:00:57;1028.3;;;37.4;40.4
76044;BME280;64740;34.694;33.088;2023-07-28T18:05:43;1028.4;;;37.1;40.8
76044;BME280;64740;34.694;33.088;2023-07-28T18:10:47;1028.4;;;36.9;41
76044;BME280;64740;34.694;33.088;2023-07-28T18:15:57;1028.4;;;36.7;41.1
76044;BME280;64740;34.694;33.088;2023-07-28T18:20:23;1028.5;;;36.6;41.2
76044;BME280;64740;34.694;33.088;2023-07-28T18:25:19;1028.6;;;36.5;41.3
76044;BME280;64740;34.694;33.088;2023-07-28T18:30:29;1028.6;;;36.4;41.3
76044;BME280;64740;34.694;33.088;2023-07-28T18:35:57;1028.7;;;36.4;41.3
76044;BME280;64740;34.694;33.088;2023-07-28T18:40:17;1028.7;;;36.3;42.7
76044;BME280;64740;34.694;33.088;2023-07-28T18:45:47;1028.7;;;36.2;43.1
76044;BME280;64740;34.694;33.088;2023-07-28T18:50:19;1028.8;;;36.1;43
76044;BME280;64740;34.694;33.088;2023-07-28T18:55:15;1028.8;;;36.1;43.2
76044;BME280;64740;34.694;33.088;2023-07-28T19:00:57;1028.9;;;36.1;43.9
76044;BME280;64740;34.694;33.088;2023-07-28T19:05:33;1028.9;;;36.1;44.1
76044;BME280;64740;34.694;33.088;2023-07-28T19:10:27;1028.9;;;36.1;44
76044;BME280;64740;34.694;33.088;2023-07-28T19:15:43;1028.9;;;36;44
76044;BME280;64740;34.694;33.088;2023-07-28T19:20:57;1028.9;;;36;43.9
76044;BME280;64740;34.694;33.088;2023-07-28T19:25:19;1028.9;;;35.9;43.5
76044;BME280;64740;34.694;33.088;2023-07-28T19:30:37;1028.9;;;35.9;42.9
76044;BME280;64740;34.694;33.088;2023-07-28T19:35:57;1028.9;;;35.8;43
76044;BME280;64740;34.694;33.088;2023-07-28T19:40:43;1028.9;;;35.3;43.4
76044;BME280;64740;34.694;33.088;2023-07-28T19:45:27;1028.9;;;35;42
76044;BME280;64740;34.694;33.088;2023-07-28T19:50:29;1028.9;;;35;41
76044;BME280;64740;34.694;33.088;2023-07-28T19:55:41;1028.9;;;35.1;40.6
76044;BME280;64740;34.694;33.088;2023-07-28T20:00:19;1028.8;;;35.2;40.2
76044;BME280;64740;34.694;33.088;2023-07-28T20:05:33;1028.8;;;35.5;39.4
76044;BME280;64740;34.694;33.088;2023-07-28T20:10:57;1028.8;;;35.6;39
76044;BME280;64740;34.694;33.088;2023-07-28T20:15:41;1028.8;;;35.8;38.6
76044;BME280;64740;34.694;33.088;2023-07-28T20:20:27;1028.8;;;35.7;38.3
76044;BME280;64740;34.694;33.088;2023-07-28T20:25:19;1028.8;;;35.6;37.5
76044;BME280;64740;34.694;33.088;2023-07-28T20:30:19;1028.7;;;35.5;37.1
76044;BME280;64740;34.694;33.088;2023-07-28T20:35:19;1028.7;;;35.3;36.7
76044;BME280;64740;34.694;33.088;2023-07-28T20:40:19;1028.6;;;35.2;36
76044;BME280;64740;34.694;33.088;2023-07-28T20:45:43;1028.7;;;35;35.6
76044;BME280;64740;34.694;33.088;2023-07-28T20:50:41;1028.6;;;34.8;34.9
76044;BME280;64740;34.694;33.088;2023-07-28T20:55:41;1028.6;;;34.4;34.3
76044;BME280;64740;34.694;33.088;2023-07-28T21:00:31;1028.6;;;34;34.2
76044;BME280;64740;34.694;33.088;2023-07-28T21:05:15;1028.6;;;33.8;33.8
76044;BME280;64740;34.694;33.088;2023-07-28T21:10:19;1028.6;;;33.6;33.7
76044;BME280;64740;34.694;33.088;2023-07-28T21:15:55;1028.5;;;33.6;32.9
76044;BME280;64740;34.694;33.088;2023-07-28T21:20:19;1028.5;;;33.7;32.5
76044;BME280;64740;34.694;33.088;2023-07-28T21:25:39;1028.5;;;33.7;32.1
76044;BME280;64740;34.694;33.088;2023-07-28T21:30:55;1028.5;;;33.3;32.5
76044;BME280;64740;34.694;33.088;2023-07-28T21:35:45;1028.5;;;33.1;32.7
76044;BME280;64740;34.694;33.088;2023-07-28T21:40:15;1028.5;;;33.2;32.7
76044;BME280;64740;34.694;33.088;2023-07-28T21:45:47;1028.4;;;33.5;32
76044;BME280;64740;34.694;33.088;2023-07-28T21:50:55;1028.4;;;33.8;31.8
76044;BME280;64740;34.694;33.088;2023-07-28T21:55:41;1028.4;;;33.9;31.5
76044;BME280;64740;34.694;33.088;2023-07-28T22:00:55;1028.3;;;34;31.6
76044;BME280;64740;34.694;33.088;2023-07-28T22:05:55;1028.3;;;34;31.3
76044;BME280;64740;34.694;33.088;2023-07-28T22:10:25;1028.3;;;34.1;30.7
76044;BME280;64740;34.694;33.088;2023-07-28T22:15:17;1028.2;;;34;30.6
76044;BME280;64740;34.694;33.088;2023-07-28T22:20:47;1028.2;;;33.9;30.6
76044;BME280;64740;34.694;33.088;2023-07-28T22:25:58;1028.2;;;33.8;30.4
76044;BME280;64740;34.694;33.088;2023-07-28T22:30:57;1028.1;;;33.5;30.4
76044;BME280;64740;34.694;33.088;2023-07-28T22:35:48;1028.1;;;33.1;30.9
76044;BME280;64740;34.694;33.088;2023-07-28T22:40:57;1028.1;;;32.9;31.1
76044;BME280;64740;34.694;33.088;2023-07-28T22:45:16;1028;;;32.8;31.4
76044;BME280;64740;34.694;33.088;2023-07-28T22:50:29;1028;;;32.8;31.2
76044;BME280;64740;34.694;33.088;2023-07-28T22:55:33;1028;;;32.9;31
76044;BME280;64740;34.694;33.088;2023-07-28T23:00:57;1027.9;;;32.6;31.1
76044;BME280;64740;34.694;33.088;2023-07-28T23:05:43;1027.9;;;32.4;31.2
76044;BME280;64740;34.694;33.088;2023-07-28T23:10:47;1027.9;;;32.4;31.3
76044;BME280;64740;34.694;33.088;2023-07-28T23:15:29;1027.9;;;32.6;31.4
76044;BME280;64740;34.694;33.088;2023-07-28T23:20:19;1027.8;;;32.5;32.1
76044;BME280;64740;34.694;33.088;2023-07-28T23:25:43;1027.8;;;32.4;33.5
76044;BME280;64740;34.694;33.088;2023-07-28T23:30:29;1027.7;;;32.3;35
76044;BME280;64740;34.694;33.088;2023-07-28T23:35:27;1027.7;;;32.5;34.5
76044;BME280;64740;34.694;33.088;2023-07-28T23:40:31;1027.7;;;32.6;34.2
76044;BME280;64740;34.694;33.088;2023-07-28T23:45:57;1027.6;;;32.3;34.3
76044;BME280;64740;34.694;33.088;2023-07-28T23:50:16;1027.6;;;32;34.2
76044;BME280;64740;34.694;33.088;2023-07-28T23:55:19;1027.5;;;31.8;34
